Warning: Javascript must be enabled to use all the features on this page!


Page Loading - Please Wait...

* We've detected you're using a mobile device. Find our mobile dedicated web site here.
Click to hideNews Bulletins

Streamflow Measurements for Florida

Click to hide state-specific text

 



USGS 02326550 AUCILLA RIVER NR MOUTH NEAR NUTALL RISE, FL


Taylor County, Florida
Hydrologic Unit Code 03110103
Latitude  30°06'43.7", Longitude  83°58'47.6" NAD27
Drainage area 938.6  square miles
Contributing drainage area 938.6  square miles
Output formats
HTML table with channel data
HTML table without channel data
Tab-separated data with channel data
Tab-separated data without channel data
Graph of data
Reselect output format
Meas.
Number
  Date       Time Time
Datum
Measurement
Used?
  Who Measuring
Agency
Stream
flow
(ft3/s)
Gage
Height
(ft)
GH
Change
(ft)
Meas.
Duration
(hr)
Meas.
Rated
  Control Flow
Adjust.
Code
 
2912010-10-05 13:02EDTYesDBD/RJVUSGS-8476.290.030.10FairClearNONE
2902010-10-05 12:55EDTYesDBD/RJVUSGS-7896.220.100.20FairClearNONE
2892010-08-05 09:31EDTYesDBD/MEOUSGS-6937.430.010.10PoorDebrisLightNONE
2882010-05-06 12:32EDTYesDBD/RJVUSGS19205.36-0.040.20FairDebrisLightNONE
2872009-12-15 10:15ESTYesDBDUSGS19403.780.140.20FairDebrisLightNONE
2862009-11-19 09:51ESTYesDMSUSGS9742.83 0.50PoorUnspecifedNONE
2852009-09-08 10:47EDTYesMEoUSGS14403.68 PoorUnspecifedNONE
2842009-07-16 10:07EDTYesDMS/MEOUSGS12606.48 PoorUnspecifedNONE
2832009-07-16 10:01EDTYesDMS/MEOUSGS11006.53 PoorUnspecifedNONE
2822009-07-16 09:53EDTYesDMS/MEOUSGS10406.59 PoorUnspecifedNONE
2812009-07-16 09:47EDTYesDMS/MEOUSGS9676.64 PoorUnspecifedNONE
2802009-07-16 09:39EDTYesDMS/MEOUSGS8736.68 PoorUnspecifedNONE
2792009-07-16 09:32EDTYesDMS/MEOUSGS6836.72 PoorUnspecifedNONE
2782009-07-16 09:24EDTYesDMS/MEOUSGS5376.75 PoorUnspecifedNONE
2772009-07-16 09:19EDTYesDMS/MEOUSGS4046.77 PoorUnspecifedNONE
2752008-08-29 11:01EDTYesDMS/MEOUSGS40706.28 FairClearNONE
2742008-08-29 10:13EDTYesDMS/MEOUSGS43505.87 FairClearNONE
2732008-08-29 09:14EDTYesDMS/MEOUSGS46305.52 FairClearNONE
2722008-06-02 10:03EDTYesDMSUSGS-3925.60 Poor NONE
2712008-06-02 09:58EDTYesDMSUSGS-2655.55 Poor NONE
2702008-06-02 09:52EDTYesDMSUSGS-2485.52 Poor NONE
2692008-06-02 09:48EDTYesDMSUSGS-2635.50 Poor NONE
2682008-06-02 09:42EDTYesDMSUSGS-2145.47 Poor NONE
2672008-06-02 09:38EDTYesDMSUSGS-1645.44 Poor NONE
2662008-06-02 09:34EDTYesDMSUSGS-1365.41 Poor NONE
2652008-06-02 09:25EDTYesDMSUSGS-1005.35 Poor NONE
2642008-02-12 10:06ESTYesDMSUSGS5344.61 PoorClearNONE
2632008-02-12 09:51ESTYesDMSUSGS6304.62 PoorClearNONE
2622007-12-19 12:37ESTYesDMS/MEOUSGS5995.24 Poor NONE
2612007-12-19 12:33ESTYesDMS/MEOUSGS5475.26 Poor NONE
2602007-12-19 12:28ESTYesDMS/MEOUSGS5485.30 Poor NONE
2592007-12-19 12:23ESTYesDMS/MEOUSGS4325.32 Poor NONE
2582007-12-19 12:18ESTYesDMS/MEOUSGS4545.36 Poor NONE
2572007-12-19 12:13ESTYesDMS/MEOUSGS4625.39 Poor NONE
2562007-12-19 12:00ESTYesDMS/MEOUSGS3395.46 Poor NONE
2552007-07-23 12:28EDTYesDMS/MEOUSGS8035.63 FairClearNONE
2542007-07-23 12:24EDTYesDMS/MEOUSGS7265.67 FairClearNONE
2532007-07-23 12:11EDTYesDMS/MEOUSGS6085.76 FairClearNONE
2522007-05-31 12:07EDTYesDMS/MEOUSGS-14007.14 FairClearNONE
2512007-05-31 11:50EDTYesDMS/MEOUSGS-12707.04 FairClearNONE
2502007-05-31 10:25EDTYesDMS/MEOUSGS-7676.21 FairClearNONE
2492007-05-31 10:20EDTYesDMS/MEOUSGS-7166.15 FairClearNONE
2482007-05-31 10:08EDTYesDMS/MEOUSGS-6466.07 FairClearNONE
2472006-12-19 11:44ESTYesDMSUSGS-5214.26 Poor NONE
2462006-12-19 11:40ESTYesDMSUSGS-4404.17 Poor NONE
2452006-12-19 11:36ESTYesDMSUSGS-4974.10 Poor NONE
2442006-12-19 11:30ESTYesDMSUSGS-5783.96 Poor NONE
2432006-12-19 11:23ESTYesDMSUSGS-5323.82 Poor NONE
2422006-12-19 11:18ESTYesDMSUSGS-4353.76 Poor NONE
2412006-07-12 20:11EDTYesDMS/MEOUSGS14804.34 Fair NONE
2402006-07-12 20:07EDTYesDMS/MEOUSGS14004.39 Fair NONE
2392006-07-12 20:04EDTYesDMS/MEOUSGS15404.43 Fair NONE
2382006-07-12 20:00EDTYesDMS/MEOUSGS15004.49 Fair NONE
2372006-07-12 19:29EDTYesDMS/MEOUSGS17704.92 Fair NONE
2362006-07-12 19:25EDTYesDMS/MEOUSGS18604.98 Fair NONE
2352006-07-12 19:20EDTYesDMS/MEOUSGS19205.04 Fair NONE
2342006-07-12 19:16EDTYesDMS/MEOUSGS18605.11 Fair NONE
2332006-07-12 19:12EDTYesDMS/MEOUSGS19205.16 Fair NONE
2322006-07-12 19:08EDTYesDMS/MEOUSGS20405.23 Fair NONE
2312006-07-12 19:04EDTYesDMS/MEOUSGS20405.30 Fair NONE
2302006-07-12 19:00EDTYesDMS/MEOUSGS21605.35 Fair NONE
2292006-07-12 18:55EDTYesDMS/MEOUSGS21405.44 Fair NONE
2282006-07-12 18:51EDTYesDMS/MEOUSGS22005.51 Fair NONE
2272006-07-12 18:47EDTYesDMS/MEOUSGS21805.58 Fair NONE
2262006-07-12 18:43EDTYesDMS/MEOUSGS23405.67 Fair NONE
2252006-07-12 18:12EDTYesDMS/MEOUSGS23006.21 Fair NONE
2242006-07-12 18:07EDTYesDMS/MEOUSGS23206.28 Fair NONE
2232006-07-12 17:44EDTYesDMS/MEOUSGS22506.60 Fair NONE
2222006-07-12 17:39EDTYesDMS/MEOUSGS23306.68 Fair NONE
2212006-07-12 17:34EDTYesDMS/MEOUSGS22306.74 Fair NONE
2202006-07-12 17:31EDTYesDMS/MEOUSGS21906.79 Fair NONE
2192006-07-12 17:26EDTYesDMS/MEOUSGS23206.84 Fair NONE
2182006-07-12 17:22EDTYesDMS/MEOUSGS21606.90 Fair NONE
2172006-07-12 17:18EDTYesDMS/MEOUSGS22406.94 Fair NONE
2162006-07-12 17:14EDTYesDMS/MEOUSGS21207.00 Fair NONE
2152006-07-12 17:09EDTYesDMS/MEOUSGS20407.05 Fair NONE
2142006-07-12 16:40EDTYesDMS/MEOUSGS10807.34 Fair NONE
2132006-07-12 16:35EDTYesDMS/MEOUSGS8027.39 Fair NONE
2122006-07-12 16:28EDTYesDMS/MEOUSGS5157.43 Fair NONE
2112006-07-12 16:25EDTYesDMS/MEOUSGS2977.44 Fair NONE
2102006-07-12 16:18EDTYesDMS/MEOUSGS25.07.48 Fair NONE
2092006-07-12 16:14EDTYesDMS/MEOUSGS-1937.50 Fair NONE
2082006-07-12 16:07EDTYesDMS/MEOUSGS-4807.52 Fair NONE
2072006-07-12 16:03EDTYesDMS/MEOUSGS-5287.54 Fair NONE
2062006-07-12 15:59EDTYesDMS/MEOUSGS-6197.54 Fair NONE
2052006-07-12 15:55EDTYesDMS/MEOUSGS-6817.56 Fair NONE
2042006-07-12 15:50EDTYesDMS/MEOUSGS-8977.56 Fair NONE
2032006-07-12 15:45EDTYesDMS/MEOUSGS-10407.58 Fair NONE
2022006-07-12 15:39EDTYesDMS/MEOUSGS-11907.58 Fair NONE
2012006-07-12 15:35EDTYesDMS/MEOUSGS-13107.57 Fair NONE
2002006-07-12 15:25EDTYesDMS/MEOUSGS-15407.55 Fair NONE
1992006-07-12 15:21EDTYesDMS/MEOUSGS-16007.54 Fair NONE
1982006-07-12 15:15EDTYesDMS/MEOUSGS-16307.52 Fair NONE
1972006-07-12 15:10EDTYesDMS/MEOUSGS-16107.50 Fair NONE
1962006-07-12 15:02EDTYesDMS/MEOUSGS-17207.46 Fair NONE
1952006-07-12 14:58EDTYesDMS/MEOUSGS-17607.42 Fair NONE
1942006-07-12 14:31EDTYesDMS/MEOUSGS-14907.20 Fair NONE
1932006-07-12 14:25EDTYesDMS/MEOUSGS-14807.14 Fair NONE
1922006-07-12 14:18EDTYesDMS/MEOUSGS-13907.08 Fair NONE
1912006-07-12 14:14EDTYesDMS/MEOUSGS-13507.03 Fair NONE
1902006-07-12 13:43EDTYesDMSUSGS-9806.72 Fair NONE
1892006-07-12 13:39EDTYesDMSUSGS-9916.69 Fair NONE
1882006-07-12 13:28EDTYesDMSUSGS-8646.58 Fair NONE
1872006-07-12 13:24EDTYesDMSUSGS-8916.54 Fair NONE
1862006-07-12 13:12EDTYesDMSUSGS-7126.42 Fair NONE
1852006-07-12 13:08EDTYesDMSUSGS-7966.38 Fair NONE
1842006-07-12 12:56EDTYesDMSUSGS-6576.26 Fair NONE
1832006-07-12 12:50EDTYesDMSUSGS-6336.20 Fair NONE
1822006-07-12 12:45EDTYesDMSUSGS-6006.16 Fair NONE
1812006-07-12 12:10EDTYesDMSUSGS-3775.79 Fair NONE
1802006-07-12 12:04EDTYesDMSUSGS-3145.74 Fair NONE
1792006-07-12 11:57EDTYesDMSUSGS-2725.67 Fair NONE
1782006-07-12 11:49EDTYesDMSUSGS-1335.60 Fair NONE
1772006-07-12 11:42EDTYesDMSUSGS-32.45.54 Fair NONE
1762006-07-12 11:35EDTYesDMSUSGS-79.75.48 Fair NONE
1752006-07-12 11:28EDTYesDMSUSGS-91.65.42 Fair NONE
1742006-07-12 11:11EDTYesDMSUSGS-1805.30 Fair NONE
1732006-07-12 11:05EDTYesDMSUSGS-1245.26 Fair NONE
1722006-07-12 10:59EDTYesDMSUSGS-2035.20 Fair NONE
1712006-07-12 10:54EDTYesDMSUSGS-2435.15 Fair NONE
1702006-07-12 10:46EDTYesDMSUSGS-1635.06 Fair NONE
1692006-07-12 10:40EDTYesDMSUSGS-91.85.00 Fair NONE
1682006-07-12 10:34EDTYesDMSUSGS-97.34.94 Fair NONE
1672006-07-12 10:30EDTYesDMSUSGS-1054.90 Fair NONE
1662006-07-12 10:24EDTYesDMSUSGS-68.54.86 Fair NONE
1652006-07-12 10:20EDTYesDMSUSGS75.74.80 Fair NONE
1642006-07-12 10:13EDTYesDMS/MEOUSGS1654.72 Fair NONE
1632006-04-12 12:30EDTYesDMSUSGS-5376.02 Fair NONE
1622006-04-12 12:26EDTYesDMSUSGS-4835.97 Fair NONE
1612006-04-12 12:24EDTYesDMSUSGS-3875.94 Fair NONE
1602006-04-12 12:20EDTYesDMSUSGS-4985.91 Fair NONE
1592006-04-12 11:36EDTYesDMSUSGS-4875.33 Fair NONE
1582006-04-12 11:32EDTYesDMSUSGS-4985.27 Fair NONE
1572006-04-12 11:28EDTYesDMSUSGS-3945.21 Fair NONE
1562006-04-12 11:25EDTYesDMSUSGS-4815.17 Fair NONE
1552006-04-12 11:21EDTYesDMSUSGS-3245.11 Fair NONE
1542006-04-12 11:18EDTYesDMSUSGS-4135.06 Fair NONE
1532006-04-12 11:15EDTYesDMSUSGS-3775.02 Fair NONE
1522006-04-12 11:11EDTYesDMSUSGS-2994.96 Fair NONE
1512006-04-12 11:08EDTYesDMSUSGS-2314.92 Fair NONE
1502006-04-12 11:05EDTYesDMSUSGS-2054.88 Fair NONE
1492006-04-12 11:02EDTYesDMSUSGS-1614.84 Fair NONE
1482006-04-12 10:59EDTYesDMSUSGS-1014.80 Fair NONE
1472006-04-12 10:49EDTYesDMSUSGS72.54.67 Fair NONE
1462006-04-12 10:46EDTYesDMSUSGS29.34.62 Fair NONE
1452006-04-12 10:43EDTYesDMSUSGS51.44.59 Fair NONE
1442006-04-12 10:40EDTYesDMSUSGS33.74.53 Fair NONE
1432006-04-12 10:23EDTYesDMSUSGS1044.39 Fair NONE
1422006-04-12 10:20EDTYesDMSUSGS1014.36 Fair NONE
1412006-04-12 10:16EDTYesDMSUSGS66.04.31 Fair NONE
1402006-04-12 10:13EDTYesDMSUSGS1034.29 Fair NONE
1392006-04-12 10:09EDTYesDMSUSGS81.44.24 Fair NONE
1382006-04-12 10:07EDTYesDMSUSGS48.54.21 Fair NONE
1372006-04-12 10:03EDTYesDMSUSGS62.94.17 Fair NONE
1362006-04-12 10:00EDTYesDMSUSGS75.44.13 Fair NONE
1352006-04-12 09:56EDTYesDMSUSGS1554.08 Fair NONE
1342006-04-12 09:52EDTYesDMSUSGS1174.02 Fair NONE
1332006-04-12 09:49EDTYesDMSUSGS1343.98 Fair NONE
1322006-04-12 09:46EDTYesDMSUSGS2073.93 Fair NONE
1312006-04-12 09:43EDTYesDMSUSGS2503.88 Fair NONE
1302006-04-12 09:38EDTYesDMSUSGS2703.82 Fair NONE
1292006-04-12 09:35EDTYesDMSUSGS3043.78 Fair NONE
1282006-04-12 09:32EDTYesDMSUSGS3593.74 Fair NONE
1272006-04-12 09:30EDTYesDMSUSGS4033.71 Fair NONE
1262006-04-12 09:03EDTYesDMSUSGS5913.45 Fair NONE
1252006-04-12 09:00EDTYesDMSUSGS6213.43 Fair NONE
1242006-04-12 08:56EDTYesDMSUSGS6673.41 Fair NONE
1232006-04-12 08:54EDTYesDMSUSGS6233.40 Fair NONE
1222006-04-12 08:50EDTYesDMSUSGS6603.38 Fair NONE
1212006-04-12 08:36EDTYesDMSUSGS7473.34 Fair NONE
1202006-04-12 08:30EDTYesDMSUSGS8403.33 Fair NONE
1192006-04-12 08:27EDTYesDMSUSGS7493.34 Fair NONE
1182006-04-12 08:23EDTYesDMSUSGS7563.35 Fair NONE
1172006-04-12 08:20EDTYesDMSUSGS8093.36 Fair NONE
1162006-04-12 08:17EDTYesDMSUSGS8033.36 Fair NONE
1152006-04-12 08:14EDTYesDMSUSGS8643.39 Fair NONE
1142006-04-12 08:10EDTYesDMSUSGS7803.38 Fair NONE
1132006-04-12 07:58EDTYesDMSUSGS8923.42 Fair NONE
1122006-04-12 07:55EDTYesDMSUSGS8823.43 Fair NONE
1112005-10-25 12:10EDTYesDMSUSGS6803.41 Fair NONE
1102005-10-25 12:07EDTYesDMSUSGS7953.44 Fair NONE
1092005-10-25 12:04EDTYesDMSUSGS6083.45 Fair NONE
1082005-10-25 12:01EDTYesDMSUSGS6503.48 Fair NONE
1072005-10-25 11:58EDTYesDMSUSGS7223.50 Fair NONE
1062005-10-25 11:54EDTYesDMSUSGS7103.52 Fair NONE
1052005-06-30 10:44EDTYesDMSUSGS11106.89 Fair NONE
1042005-06-30 10:39EDTYesDMSUSGS10406.90 Fair NONE
1032005-06-30 10:34EDTYesDMSUSGS9966.91 Fair NONE
1022005-06-30 10:29EDTYesDMSUSGS9646.92 Fair NONE
1012005-06-30 10:21EDTYesDMSUSGS8666.93 Fair NONE
1002005-06-30 10:17EDTYesDMSUSGS8706.93 Fair NONE
992005-06-30 10:13EDTYesDMSUSGS8526.93 Fair NONE
982005-06-30 10:09EDTYesDMSUSGS7526.93 Fair NONE
972005-06-30 10:04EDTYesDMSUSGS6626.93 Fair NONE
962005-06-30 10:00EDTYesDMSUSGS7556.93 Fair NONE
952005-06-30 09:57EDTYesDMSUSGS6106.93 Fair NONE
942005-06-30 09:54EDTYesDMSUSGS5956.93 Fair NONE
932004-11-02 09:35ESTYesDMSUSGS29805.50 Fair NONE
922004-04-06 16:23EDTYesDMSUSGS2067.60 Fair NONE
912004-04-06 16:23EDTYesDMSUSGS13.37.63 Fair NONE
902004-04-06 16:18EDTYesDMSUSGS-1907.66 Fair NONE
892004-04-06 16:14EDTYesDMSUSGS-3307.68 Fair NONE
882004-04-06 16:10EDTYesDMSUSGS-3867.69 Fair NONE
872004-04-06 15:47EDTYesDMSUSGS-10007.71 Fair NONE
862004-04-06 15:40EDTYesDMSUSGS-9737.70 Fair NONE
852004-04-06 15:33EDTYesDMSUSGS-12107.68 Fair NONE
842004-04-06 15:29EDTYesDMSUSGS-11407.67 Fair NONE
832004-04-06 15:25EDTYesDMSUSGS-11807.65 Fair NONE
822004-04-06 15:02EDTYesDMSUSGS-12707.54 Fair NONE
812004-04-06 15:00EDTYesDMSUSGS-13507.53 Fair NONE
802004-04-06 14:54EDTYesDMSUSGS-11807.49 Fair NONE
792004-04-06 14:48EDTYesDMSUSGS-11307.44 Fair NONE
782004-04-06 14:44EDTYesDMSUSGS-10907.29 Fair NONE
772004-04-06 14:20EDTYesDMSUSGS-10107.21 Fair NONE
762004-04-06 14:16EDTYesDMSUSGS-10607.17 Fair NONE
752004-04-06 14:12EDTYesDMSUSGS-9487.13 Fair NONE
742004-04-06 14:08EDTYesDMSUSGS-8337.08 Fair NONE
732004-04-06 13:24EDTYesDMSUSGS-7076.56 Fair NONE
722004-04-06 13:18EDTYesDMSUSGS-1376.48 Fair NONE
712004-04-06 12:44EDTYesDMSUSGS-2045.98 Fair NONE
702004-04-06 12:42EDTYesDMSUSGS-1395.96 Fair NONE
692004-04-06 12:38EDTYesDMSUSGS-1265.91 Fair NONE
682004-04-06 12:31EDTYesDMSUSGS-2095.83 Fair NONE
672004-04-06 12:28EDTYesDMSUSGS-1125.80 Fair NONE
662004-04-06 12:22EDTYesDMSUSGS-2835.80 Fair NONE
652004-04-06 12:18EDTYesDMSUSGS-2685.73 Fair NONE
642004-04-06 12:16EDTYesDMSUSGS-2415.69 Fair NONE
632004-04-06 12:11EDTYesDMSUSGS-2465.67 Fair NONE
622004-04-06 12:06EDTYesDMSUSGS-85.35.53 Fair NONE
612004-04-06 12:01EDTYesDMSUSGS-65.55.45 Fair NONE
602004-04-06 11:58EDTYesDMSUSGS1.265.42 Fair NONE
592004-04-06 11:50EDTYesDMSUSGS-17.45.32 Fair NONE
582004-04-06 11:46EDTYesDMSUSGS-75.05.27 Fair NONE
572004-04-06 11:42EDTYesDMSUSGS-72.65.22 Fair NONE
562004-04-06 11:38EDTYesDMSUSGS-93.75.17 Fair NONE
552004-04-06 11:34EDTYesDMSUSGS-7.225.11 Fair NONE
542004-04-06 11:31EDTYesDMSUSGS79.65.07 Fair NONE
532004-04-06 11:28EDTYesDMSUSGS97.85.03 Fair NONE
522004-04-06 11:24EDTYesDMSUSGS1604.98 Fair NONE
512004-04-06 11:20EDTYesDMSUSGS2054.92 Fair NONE
502004-04-06 11:16EDTYesDMSUSGS2444.86 Fair NONE
492004-04-06 11:10EDTYesDMSUSGS2874.78 Fair NONE
482004-04-06 11:02EDTYesDMSUSGS3484.68 Fair NONE
472004-04-06 10:55EDTYesDMSUSGS4314.58 Fair NONE
462004-04-06 10:50EDTYesDMSUSGS5994.51 Fair NONE
452004-04-06 10:44EDTYesDMSUSGS6614.44 Fair NONE
442004-04-06 10:20EDTYesDMSUSGS8364.33 Fair NONE
432004-04-06 10:05EDTYesDMSUSGS9064.33 Fair NONE
422004-04-06 09:38EDTYesDMSUSGS10204.45 Fair NONE
412004-04-06 09:26EDTYesDMSUSGS9824.53 Fair NONE
402004-04-06 09:12EDTYesDMSUSGS10604.65 Fair NONE
392004-04-06 09:06EDTYesDMSUSGS11504.70 Fair NONE
382004-04-06 08:14EDTYesDMSUSGS12905.20 Fair NONE
372004-04-06 07:56EDTYesDMSUSGS12605.40 Unspecified NONE
362004-04-06 07:38EDTYesDMSUSGS13305.48 Fair NONE
352004-04-06 07:38EDTYesDMSUSGS13905.60 Fair NONE
342004-04-06 07:31EDTYesDMSUSGS14405.74 Fair NONE
332004-04-06 07:24EDTYesDMSUSGS15105.79 Fair NONE
322002-10-30 12:17ESTYesDMSUSGS12105.73 Poor NONE
312002-10-30 12:13ESTYesDMSUSGS12305.75 Poor NONE
302002-10-30 12:09ESTYesDMSUSGS12605.78 Poor NONE
292002-10-30 12:05ESTYesDMSUSGS12905.81 Poor NONE
282002-01-18 11:55ESTYesDMS/RBSUSGS11203.10 Poor NONE
272002-01-18 11:51ESTYesDMS/RBSUSGS9473.11 Poor NONE
262002-01-18 11:47ESTYesDMS/RBSUSGS8303.13 Poor NONE
252002-01-18 11:43ESTYesDMS/RBSUSGS11603.15 Poor NONE
242002-01-18 11:39ESTYesDMS/RBSUSGS10103.17 Poor NONE
232002-01-18 11:35ESTYesDMS/RBSUSGS7003.19 Poor NONE
222001-06-28 12:28EDTYesDMS/DCGUSGS22005.16 Poor NONE
212001-06-28 12:24EDTYesDMS/DCGUSGS21705.20 Poor NONE
202001-06-28 12:05EDTYesDMS/DCGUSGS21905.32 Poor NONE
192001-06-28 11:54EDTYesDMS/DCGUSGS22805.41 Poor NONE
182001-06-28 11:49EDTYesDMS/DCGUSGS22405.45 Poor NONE
172001-05-03 13:39EDTYesDMS/DCGUSGS9326.72 Poor NONE
162001-05-03 13:34EDTYesDMS/DCGUSGS8216.76 Poor NONE
152001-05-03 13:29EDTYesDMS/DCGUSGS4706.80 Poor NONE
142001-05-03 13:20EDTYesDMS/DCGUSGS-23.26.87 Poor NONE
132001-05-03 13:15EDTYesDMS/DCGUSGS-1406.90 Poor NONE
122001-05-03 13:09EDTYesDMS/DCGUSGS-5366.92 Poor NONE
112001-05-03 13:06EDTYesDMS/DCGUSGS-5346.92 Poor NONE
102001-05-03 13:01EDTYesDMS/DCGUSGS-4816.94 Poor NONE
92001-05-03 12:57EDTYesDMS/DCGUSGS-5426.94 Poor NONE
82001-05-03 12:52EDTYesDMS/DCGUSGS-6616.94 Poor NONE
72001-05-03 12:47EDTYesDMS/DCGUSGS-6506.93 Poor NONE
62001-05-03 11:47EDTYesDMS/DCGUSGS-10606.64 Poor NONE
52001-05-03 10:39EDTYesDMS/DCGUSGS-10605.91 Poor NONE
42001-05-03 10:34EDTYesDMS/DCGUSGS-8895.84 Poor NONE
32001-05-03 10:27EDTYesDMS/DCGUSGS-10505.75 Poor NONE
22001-05-03 10:23EDTYesDMS/DCGUSGS-9865.68 Poor NONE
12001-05-03 10:17EDTYesDMS/DCGUSGS-8235.62 Poor NONE